Time;durP1;ratioP1;P1;durP2;ratioP2;P2;SDS_P1;SDS_P2;PMS_P1;PMS_P2;Temp;Humidity;BMP_temperature;BMP_pressure;BME280_temperature;BME280_humidity;BME280_pressure;Samples;Min_cycle;Max_cycle;Signal;HPM_P1;HPM_P2
2021/04/25 00:01:51;;;;;;;12.97;5.63;;;4.70;99.90;;;;;;5072310;28;20316;-76
2021/04/25 00:04:36;;;;;;;15.93;6.30;;;4.80;99.90;;;;;;5060901;28;20218;-76
2021/04/25 00:07:21;;;;;;;13.90;5.70;;;4.70;99.90;;;;;;5073437;28;20226;-77
2021/04/25 00:10:07;;;;;;;15.10;6.70;;;4.70;99.90;;;;;;5061185;28;20254;-77
2021/04/25 00:12:52;;;;;;;11.63;6.07;;;4.60;99.90;;;;;;5064563;28;20756;-78
2021/04/25 00:15:37;;;;;;;15.60;6.23;;;4.60;99.90;;;;;;5058142;28;20193;-77
2021/04/25 00:18:23;;;;;;;14.57;6.43;;;4.60;99.90;;;;;;5076028;28;20691;-78
2021/04/25 00:21:08;;;;;;;13.67;5.97;;;4.60;99.90;;;;;;5069745;28;20202;-77
2021/04/25 00:23:54;;;;;;;13.43;6.57;;;4.60;99.90;;;;;;5073225;28;20254;-76
2021/04/25 00:26:39;;;;;;;14.27;5.87;;;4.60;99.90;;;;;;5068638;28;20294;-75
2021/04/25 00:29:24;;;;;;;12.40;6.13;;;4.60;99.90;;;;;;5064540;28;20262;-77
2021/04/25 00:32:09;;;;;;;12.03;5.97;;;4.50;99.90;;;;;;5071186;28;20209;-77
2021/04/25 00:34:54;;;;;;;13.53;6.40;;;4.50;99.90;;;;;;5067819;28;20212;-77
2021/04/25 00:37:39;;;;;;;17.03;6.47;;;4.50;99.90;;;;;;5065160;28;20213;-76
2021/04/25 00:40:25;;;;;;;19.07;6.63;;;4.50;99.90;;;;;;5064248;28;20268;-78
2021/04/25 00:43:09;;;;;;;14.97;7.13;;;4.50;99.90;;;;;;5072711;28;20218;-78
2021/04/25 00:45:54;;;;;;;14.60;7.37;;;4.60;99.90;;;;;;5059585;28;20215;-78
2021/04/25 00:48:39;;;;;;;14.73;6.40;;;4.70;99.90;;;;;;5065270;28;20214;-78
2021/04/25 00:51:24;;;;;;;16.73;6.43;;;4.70;99.90;;;;;;5071859;28;20217;-76
2021/04/25 00:54:10;;;;;;;16.40;6.47;;;4.80;99.90;;;;;;5072972;28;20282;-77
2021/04/25 00:56:55;;;;;;;14.93;6.90;;;4.90;99.90;;;;;;5071531;28;20525;-78
2021/04/25 00:59:40;;;;;;;13.90;6.17;;;5.00;99.90;;;;;;5072416;28;20252;-77
2021/04/25 01:02:26;;;;;;;11.87;5.97;;;5.10;99.90;;;;;;5061950;28;20217;-78
2021/04/25 01:05:13;;;;;;;13.50;5.87;;;5.20;99.90;;;;;;5069737;28;20213;-78
2021/04/25 01:07:59;;;;;;;12.80;5.90;;;5.30;99.90;;;;;;5080509;28;20236;-77
2021/04/25 01:10:44;;;;;;;12.60;5.57;;;5.30;99.90;;;;;;5071535;28;20691;-78
2021/04/25 01:13:29;;;;;;;14.27;5.63;;;5.40;99.90;;;;;;5062624;28;20257;-77
2021/04/25 01:16:14;;;;;;;14.37;5.57;;;5.50;99.90;;;;;;5068003;28;20213;-76
2021/04/25 01:18:59;;;;;;;14.27;5.60;;;5.50;99.90;;;;;;5065286;28;20623;-77
2021/04/25 01:21:44;;;;;;;13.27;5.17;;;5.60;99.90;;;;;;5061207;28;20233;-76
2021/04/25 01:24:29;;;;;;;14.20;5.10;;;5.70;99.90;;;;;;5063432;28;20233;-78
2021/04/25 01:27:16;;;;;;;9.93;5.47;;;5.70;99.90;;;;;;5072183;28;20292;-78
2021/04/25 01:30:02;;;;;;;7.93;4.60;;;5.70;99.90;;;;;;5070760;28;20302;-77
2021/04/25 01:32:47;;;;;;;15.60;5.77;;;5.70;99.90;;;;;;5064669;28;20284;-77
2021/04/25 01:35:32;;;;;;;13.90;5.43;;;5.70;99.90;;;;;;5065888;28;20226;-77
2021/04/25 01:38:18;;;;;;;11.23;5.30;;;5.60;99.90;;;;;;5073102;28;20308;-76
2021/04/25 01:41:02;;;;;;;10.27;4.80;;;5.60;99.90;;;;;;5067769;28;20196;-78
2021/04/25 01:43:47;;;;;;;13.07;5.10;;;5.50;99.90;;;;;;5059452;28;20269;-77
2021/04/25 01:46:32;;;;;;;11.87;5.37;;;5.50;99.90;;;;;;5069424;28;20268;-78
2021/04/25 01:49:16;;;;;;;11.27;5.27;;;5.40;99.90;;;;;;5074775;28;20723;-77
2021/04/25 01:52:01;;;;;;;12.17;5.00;;;5.30;99.90;;;;;;5065744;28;20234;-77
2021/04/25 01:54:47;;;;;;;10.87;5.00;;;5.30;99.90;;;;;;5055819;28;20253;-78
2021/04/25 01:57:32;;;;;;;9.93;4.57;;;5.20;99.90;;;;;;5075148;28;20592;-77
2021/04/25 02:00:19;;;;;;;11.93;5.03;;;5.10;99.90;;;;;;5058148;28;20354;-78
2021/04/25 02:03:05;;;;;;;12.43;4.77;;;5.10;99.90;;;;;;5067279;28;20245;-77
2021/04/25 02:05:50;;;;;;;13.00;5.03;;;5.00;99.90;;;;;;5064491;28;20776;-77
2021/04/25 02:08:35;;;;;;;11.90;5.30;;;4.90;99.90;;;;;;5057439;28;20262;-77
2021/04/25 02:11:21;;;;;;;10.83;4.57;;;4.90;99.90;;;;;;5064598;28;20310;-77
2021/04/25 02:14:07;;;;;;;10.63;4.50;;;4.80;99.90;;;;;;5075518;28;20238;-77
2021/04/25 02:16:51;;;;;;;11.77;4.93;;;4.70;99.90;;;;;;5074155;28;20217;-77
2021/04/25 02:19:37;;;;;;;9.83;4.50;;;4.70;99.90;;;;;;5064752;28;20217;-77
2021/04/25 02:22:22;;;;;;;11.37;4.37;;;4.60;99.90;;;;;;5073785;28;20233;-77
2021/04/25 02:25:09;;;;;;;11.57;4.87;;;4.60;99.90;;;;;;5067949;28;20198;-77
2021/04/25 02:27:56;;;;;;;11.80;4.93;;;4.60;99.90;;;;;;5062446;28;20256;-77
2021/04/25 02:30:42;;;;;;;8.53;4.13;;;4.70;99.90;;;;;;5072891;28;20305;-78
2021/04/25 02:33:27;;;;;;;9.90;4.07;;;4.70;99.90;;;;;;5066586;28;20211;-77
2021/04/25 02:36:12;;;;;;;10.43;3.90;;;4.60;99.90;;;;;;5071266;28;20204;-75
2021/04/25 02:38:57;;;;;;;10.93;4.17;;;4.70;99.90;;;;;;5074887;28;20234;-78
2021/04/25 02:41:41;;;;;;;11.67;4.63;;;4.70;99.90;;;;;;5065833;28;20197;-78
2021/04/25 02:44:27;;;;;;;8.57;3.70;;;4.80;99.90;;;;;;5068738;28;21061;-75
2021/04/25 02:47:12;;;;;;;9.00;3.20;;;4.80;99.90;;;;;;5065802;28;20282;-78
2021/04/25 02:49:57;;;;;;;8.87;3.77;;;4.90;99.90;;;;;;5071142;28;20225;-76
2021/04/25 02:52:43;;;;;;;10.83;4.17;;;4.90;99.90;;;;;;5074480;28;20711;-77
2021/04/25 02:55:28;;;;;;;7.73;3.63;;;5.00;99.90;;;;;;5066046;28;20696;-78
2021/04/25 02:58:13;;;;;;;9.63;3.63;;;5.00;99.90;;;;;;5074227;28;20271;-77
2021/04/25 03:00:59;;;;;;;10.40;3.60;;;5.10;99.90;;;;;;5080018;28;20240;-78
2021/04/25 03:03:43;;;;;;;9.87;3.67;;;5.10;99.90;;;;;;5069529;28;20268;-77
2021/04/25 03:06:28;;;;;;;12.33;4.00;;;5.20;99.90;;;;;;5074522;28;20655;-77
2021/04/25 03:09:13;;;;;;;11.37;3.80;;;5.20;99.90;;;;;;5077334;28;20640;-77
2021/04/25 03:11:57;;;;;;;12.27;3.63;;;5.20;99.90;;;;;;5072862;28;20213;-76
2021/04/25 03:14:42;;;;;;;9.10;3.70;;;5.20;99.90;;;;;;5068251;28;20213;-78
2021/04/25 03:17:27;;;;;;;6.27;3.20;;;5.20;99.90;;;;;;5070990;28;20265;-77
2021/04/25 03:20:14;;;;;;;11.30;4.50;;;5.10;99.90;;;;;;5074340;28;20259;-78
2021/04/25 03:23:00;;;;;;;6.47;3.67;;;5.10;99.90;;;;;;5072871;28;20193;-77
2021/04/25 03:25:44;;;;;;;11.60;4.03;;;5.00;99.90;;;;;;5076249;28;20214;-75
2021/04/25 03:28:29;;;;;;;11.37;4.27;;;5.00;99.90;;;;;;5078008;28;20224;-73
2021/04/25 03:31:14;;;;;;;9.37;3.77;;;4.90;99.90;;;;;;5067747;28;20933;-75
2021/04/25 03:33:59;;;;;;;7.00;3.93;;;4.90;99.90;;;;;;5075607;28;20201;-77
2021/04/25 03:36:44;;;;;;;8.50;3.13;;;4.80;99.90;;;;;;5071198;28;20210;-75
2021/04/25 03:39:28;;;;;;;8.03;3.60;;;4.80;99.90;;;;;;5074312;28;20217;-75
2021/04/25 03:42:13;;;;;;;10.57;3.40;;;4.70;99.90;;;;;;5077515;28;20240;-76
2021/04/25 03:44:58;;;;;;;8.13;3.33;;;4.70;99.90;;;;;;5067796;28;20312;-75
2021/04/25 03:47:44;;;;;;;9.43;3.77;;;4.60;99.90;;;;;;5075827;28;20696;-75
2021/04/25 03:50:30;;;;;;;10.73;3.70;;;4.60;99.90;;;;;;5074674;28;20443;-76
2021/04/25 03:53:15;;;;;;;11.57;4.30;;;4.60;99.90;;;;;;5077686;28;20293;-77
2021/04/25 03:56:00;;;;;;;9.50;3.63;;;4.70;99.90;;;;;;5065880;28;20218;-75
2021/04/25 03:58:44;;;;;;;9.07;3.63;;;4.70;99.90;;;;;;5075369;28;20210;-76
2021/04/25 04:01:29;;;;;;;7.77;3.43;;;4.70;99.90;;;;;;5078181;28;20217;-76
2021/04/25 04:04:14;;;;;;;8.20;3.10;;;4.80;99.90;;;;;;5072999;28;20777;-75
2021/04/25 04:06:59;;;;;;;8.73;2.90;;;4.80;99.90;;;;;;5070344;28;20269;-77
2021/04/25 04:09:44;;;;;;;7.83;3.03;;;4.90;99.90;;;;;;5071753;28;20227;-77
2021/04/25 04:12:29;;;;;;;7.20;3.27;;;4.90;99.90;;;;;;5056233;28;20580;-77
2021/04/25 04:15:14;;;;;;;9.97;3.77;;;5.00;99.90;;;;;;5069010;28;20574;-78
2021/04/25 04:17:59;;;;;;;10.87;3.33;;;5.10;99.90;;;;;;5060180;28;20797;-77
2021/04/25 04:20:43;;;;;;;9.60;3.50;;;5.10;99.90;;;;;;5067587;28;20306;-78
2021/04/25 04:23:29;;;;;;;9.57;3.67;;;5.20;99.90;;;;;;5060694;28;20197;-76
2021/04/25 04:26:14;;;;;;;9.63;3.23;;;5.30;99.90;;;;;;5065815;28;20676;-78
2021/04/25 04:28:59;;;;;;;8.30;3.03;;;5.30;99.90;;;;;;5075929;28;20265;-75
2021/04/25 04:31:44;;;;;;;9.27;3.20;;;5.30;99.90;;;;;;5078348;28;20255;-74
2021/04/25 04:34:29;;;;;;;17.47;3.57;;;5.40;99.90;;;;;;5086024;28;20209;-76
2021/04/25 04:37:14;;;;;;;8.63;2.80;;;5.50;99.90;;;;;;5076811;28;20210;-76
2021/04/25 04:39:59;;;;;;;9.30;3.07;;;5.50;99.90;;;;;;5069696;28;20229;-75
2021/04/25 04:42:44;;;;;;;10.50;3.60;;;5.60;99.90;;;;;;5070254;28;20218;-76
2021/04/25 04:45:29;;;;;;;8.67;2.77;;;5.60;99.90;;;;;;5074864;28;20256;-76
2021/04/25 04:48:13;;;;;;;8.00;3.23;;;5.70;99.90;;;;;;5067668;28;20210;-78
2021/04/25 04:50:58;;;;;;;10.77;3.20;;;5.70;99.90;;;;;;5067125;28;20205;-78
2021/04/25 04:53:43;;;;;;;7.77;2.83;;;5.80;99.90;;;;;;5069875;28;20210;-76
2021/04/25 04:56:28;;;;;;;10.90;3.03;;;5.80;99.90;;;;;;5065146;28;20210;-79
2021/04/25 04:59:13;;;;;;;8.27;2.70;;;5.90;99.90;;;;;;5070908;28;20656;-77
2021/04/25 05:01:58;;;;;;;7.63;3.00;;;5.90;99.90;;;;;;5066728;28;20269;-78
2021/04/25 05:04:42;;;;;;;9.10;2.90;;;6.00;99.90;;;;;;5068944;28;20209;-78
2021/04/25 05:07:27;;;;;;;8.83;2.70;;;6.00;99.90;;;;;;5067117;28;20291;-75
2021/04/25 05:10:12;;;;;;;7.20;2.77;;;6.10;99.90;;;;;;5058575;28;20332;-78
2021/04/25 05:12:58;;;;;;;5.00;2.03;;;6.10;99.90;;;;;;5063483;28;20913;-78
2021/04/25 05:15:43;;;;;;;6.10;2.23;;;6.20;99.90;;;;;;5066637;28;20290;-78
2021/04/25 05:18:27;;;;;;;8.90;2.60;;;6.20;99.90;;;;;;5073745;28;20646;-76
2021/04/25 05:21:13;;;;;;;6.20;1.80;;;6.30;99.90;;;;;;5069935;28;20249;-78
2021/04/25 05:23:58;;;;;;;7.87;2.40;;;6.30;99.90;;;;;;5072117;28;20206;-78
2021/04/25 05:26:42;;;;;;;6.57;1.87;;;6.40;99.90;;;;;;5076006;28;20206;-79
2021/04/25 05:29:28;;;;;;;6.03;2.40;;;6.40;99.90;;;;;;5082289;28;20217;-79
2021/04/25 05:32:13;;;;;;;6.90;2.17;;;6.40;99.90;;;;;;5075768;28;20287;-79
2021/04/25 05:34:57;;;;;;;9.53;2.57;;;6.50;99.90;;;;;;5078040;28;20696;-76
2021/04/25 05:37:42;;;;;;;9.30;2.63;;;6.60;99.90;;;;;;5076891;28;20206;-78
2021/04/25 05:40:27;;;;;;;10.33;2.50;;;6.60;99.90;;;;;;5076701;28;20222;-77
2021/04/25 05:43:12;;;;;;;8.90;2.20;;;6.70;99.90;;;;;;5080166;28;20296;-79
2021/04/25 05:45:58;;;;;;;5.53;2.47;;;6.70;99.90;;;;;;5079578;28;20298;-78
2021/04/25 05:48:44;;;;;;;7.13;2.23;;;6.80;99.90;;;;;;5076474;28;20206;-78
2021/04/25 05:51:28;;;;;;;7.53;3.17;;;6.80;99.90;;;;;;5075733;28;20260;-77
2021/04/25 05:54:13;;;;;;;7.10;2.40;;;6.90;99.90;;;;;;5078386;28;20205;-78
2021/04/25 05:56:58;;;;;;;9.07;2.43;;;6.90;99.90;;;;;;5079372;28;20282;-76
2021/04/25 05:59:43;;;;;;;9.77;2.80;;;7.00;99.90;;;;;;5076028;28;20278;-75
2021/04/25 06:02:28;;;;;;;9.40;2.63;;;7.00;99.90;;;;;;5074166;28;20265;-76
2021/04/25 06:05:13;;;;;;;5.83;2.37;;;7.10;99.90;;;;;;5079335;28;20256;-75
2021/04/25 06:07:58;;;;;;;8.60;2.37;;;7.20;99.90;;;;;;5075358;28;20206;-77
2021/04/25 06:10:43;;;;;;;10.73;2.23;;;7.30;99.90;;;;;;5083448;28;20344;-76
2021/04/25 06:13:28;;;;;;;8.13;2.40;;;7.30;99.90;;;;;;5078473;28;20205;-77
2021/04/25 06:16:12;;;;;;;9.33;2.17;;;7.40;99.90;;;;;;5086206;28;20256;-78
2021/04/25 06:18:58;;;;;;;8.60;2.87;;;7.50;99.90;;;;;;5076893;28;20359;-77
2021/04/25 06:21:43;;;;;;;6.90;2.63;;;7.50;99.90;;;;;;5066185;28;20273;-77
2021/04/25 06:24:27;;;;;;;8.63;2.30;;;7.60;99.90;;;;;;5077172;28;20210;-77
2021/04/25 06:27:12;;;;;;;10.87;2.53;;;7.70;99.90;;;;;;5073981;28;20206;-78
2021/04/25 06:29:57;;;;;;;5.93;2.57;;;7.70;99.90;;;;;;5073701;28;20214;-78
2021/04/25 06:32:41;;;;;;;5.70;2.03;;;7.80;99.90;;;;;;5081507;28;20205;-77
2021/04/25 06:35:27;;;;;;;12.00;3.53;;;7.90;99.90;;;;;;5069699;28;20206;-76
2021/04/25 06:38:12;;;;;;;10.87;2.80;;;8.00;99.90;;;;;;5073473;28;20272;-77
2021/04/25 06:40:56;;;;;;;8.33;2.80;;;8.00;99.90;;;;;;5075651;28;20226;-78
2021/04/25 06:43:41;;;;;;;9.83;3.53;;;8.10;99.90;;;;;;5077749;28;20209;-77
2021/04/25 06:46:26;;;;;;;10.73;2.87;;;8.20;99.90;;;;;;5076490;28;20206;-77
2021/04/25 06:49:11;;;;;;;7.03;2.83;;;8.20;99.90;;;;;;5065700;28;20235;-75
2021/04/25 06:51:57;;;;;;;7.47;2.63;;;8.30;99.90;;;;;;5074770;28;20202;-78
2021/04/25 06:54:42;;;;;;;8.67;2.40;;;8.40;99.90;;;;;;5061698;28;20228;-76
2021/04/25 06:57:29;;;;;;;8.43;2.47;;;8.50;99.90;;;;;;5061408;28;20681;-78
2021/04/25 07:00:17;;;;;;;7.27;2.67;;;8.60;99.90;;;;;;5068316;28;20574;-76
2021/04/25 07:03:02;;;;;;;7.23;2.10;;;8.60;99.90;;;;;;5073431;28;20271;-75
2021/04/25 07:05:46;;;;;;;9.70;2.40;;;8.70;99.90;;;;;;5068570;28;20692;-77
2021/04/25 07:08:32;;;;;;;5.83;2.00;;;8.80;99.90;;;;;;5068707;28;20620;-77
2021/04/25 07:11:17;;;;;;;4.33;1.80;;;8.90;99.90;;;;;;5056992;28;20222;-73
2021/04/25 07:14:02;;;;;;;6.13;1.90;;;9.00;99.90;;;;;;5059859;28;20214;-75
2021/04/25 07:16:47;;;;;;;7.60;2.57;;;9.00;99.90;;;;;;5073220;28;20702;-77
2021/04/25 07:19:32;;;;;;;11.97;2.43;;;9.20;99.90;;;;;;5087699;28;20636;-77
2021/04/25 07:22:16;;;;;;;6.27;1.63;;;9.20;99.90;;;;;;5074237;28;20248;-76
2021/04/25 07:25:03;;;;;;;3.10;1.50;;;9.40;99.90;;;;;;5083603;28;20625;-78
2021/04/25 07:27:48;;;;;;;7.13;1.93;;;9.40;99.90;;;;;;5078890;28;20303;-78
2021/04/25 07:30:33;;;;;;;7.10;1.80;;;9.60;99.90;;;;;;5072272;28;20248;-77
2021/04/25 07:33:19;;;;;;;6.17;1.80;;;9.60;99.90;;;;;;5076850;28;20217;-78
2021/04/25 07:36:08;;;;;;;7.37;1.57;;;9.80;99.90;;;;;;5066347;28;20245;-77
2021/04/25 07:38:53;;;;;;;8.03;2.00;;;9.80;99.90;;;;;;5078027;28;20238;-76
2021/04/25 07:41:39;;;;;;;10.27;2.13;;;9.90;99.90;;;;;;5076100;28;20707;-77
2021/04/25 07:44:24;;;;;;;5.97;1.80;;;10.00;99.90;;;;;;5076514;28;20209;-77
2021/04/25 07:47:09;;;;;;;7.73;1.77;;;10.10;99.90;;;;;;5076188;28;20202;-78
2021/04/25 07:49:54;;;;;;;4.07;1.87;;;10.20;99.90;;;;;;5076732;28;20228;-76
2021/04/25 07:52:39;;;;;;;8.50;2.17;;;10.30;99.90;;;;;;5073436;28;20229;-78
2021/04/25 07:55:24;;;;;;;5.30;2.00;;;10.40;99.90;;;;;;5069201;28;20743;-76
2021/04/25 07:58:10;;;;;;;4.50;1.77;;;10.50;99.90;;;;;;5079861;28;20340;-76
2021/04/25 08:00:55;;;;;;;4.90;1.77;;;10.60;99.90;;;;;;5073204;28;20229;-76
2021/04/25 08:03:40;;;;;;;8.87;2.07;;;10.70;99.90;;;;;;5073738;28;20298;-78
2021/04/25 08:06:26;;;;;;;7.87;1.80;;;10.70;99.40;;;;;;5073742;28;20204;-76
2021/04/25 08:09:10;;;;;;;9.37;2.40;;;10.80;99.70;;;;;;5066527;28;20285;-79
2021/04/25 08:11:55;;;;;;;4.77;1.70;;;11.00;99.60;;;;;;5078170;28;20243;-76
2021/04/25 08:14:41;;;;;;;6.40;1.53;;;11.10;99.60;;;;;;5090327;28;20819;-78
2021/04/25 08:17:26;;;;;;;8.43;1.57;;;11.20;99.50;;;;;;5074874;28;20252;-76
2021/04/25 08:20:13;;;;;;;5.97;1.70;;;11.30;99.20;;;;;;5086795;28;20221;-77
2021/04/25 08:22:57;;;;;;;7.50;2.20;;;11.40;98.90;;;;;;5086039;28;20555;-78
2021/04/25 08:25:42;;;;;;;7.40;1.80;;;11.50;98.40;;;;;;5068142;28;20698;-79
2021/04/25 08:28:27;;;;;;;5.57;1.50;;;11.60;97.60;;;;;;5075515;28;20291;-79
2021/04/25 08:31:12;;;;;;;8.93;2.10;;;11.70;96.80;;;;;;5075842;28;20225;-76
2021/04/25 08:33:57;;;;;;;9.87;1.80;;;11.80;96.10;;;;;;5081396;28;20635;-79
2021/04/25 08:36:42;;;;;;;6.93;1.70;;;12.00;96.50;;;;;;5078529;28;20344;-78
2021/04/25 08:39:26;;;;;;;4.23;1.50;;;12.00;96.00;;;;;;5075430;28;20242;-78
2021/04/25 08:42:13;;;;;;;5.67;1.50;;;12.20;94.40;;;;;;5077621;28;20258;-80
2021/04/25 08:45:00;;;;;;;10.33;2.20;;;12.30;95.30;;;;;;5068144;28;20209;-78
2021/04/25 08:47:53;;;;;;;8.10;2.17;;;12.40;94.10;;;;;;5077817;28;20412;-78
2021/04/25 08:50:40;;;;;;;6.67;1.97;;;12.50;94.00;;;;;;5064099;28;20274;-80
2021/04/25 08:53:25;;;;;;;8.23;1.97;;;12.60;92.90;;;;;;5068009;28;20672;-77
2021/04/25 08:56:10;;;;;;;5.30;1.60;;;12.80;92.50;;;;;;5057622;28;20211;-76
2021/04/25 08:58:57;;;;;;;5.63;1.67;;;12.90;92.40;;;;;;5068343;28;20298;-80
2021/04/25 09:01:42;;;;;;;6.37;1.40;;;12.90;92.60;;;;;;5074138;28;20254;-75
2021/04/25 09:04:28;;;;;;;9.03;2.63;;;13.00;92.40;;;;;;5069696;28;20342;-74
2021/04/25 09:07:15;;;;;;;6.07;1.50;;;13.20;91.00;;;;;;5066941;28;20209;-76
2021/04/25 09:10:03;;;;;;;10.80;2.43;;;13.30;92.30;;;;;;5071750;28;20267;-78
2021/04/25 09:12:48;;;;;;;10.33;2.27;;;13.40;92.60;;;;;;5082734;28;20239;-79
2021/04/25 09:15:34;;;;;;;9.23;2.07;;;13.50;92.40;;;;;;5097999;28;20216;-78
2021/04/25 09:18:31;;;;;;;7.87;1.67;;;13.60;92.10;;;;;;5083762;28;20262;-80
2021/04/25 09:21:16;;;;;;;9.03;1.80;;;13.90;90.40;;;;;;5081158;28;20334;-79
2021/04/25 09:24:20;;;;;;;5.17;1.43;;;14.10;90.70;;;;;;5087353;28;20208;-81
2021/04/25 09:27:05;;;;;;;6.07;1.73;;;14.30;90.30;;;;;;5080393;28;20291;-80
2021/04/25 09:29:52;;;;;;;3.83;1.53;;;14.60;87.70;;;;;;5090322;28;20229;-79
2021/04/25 09:32:37;;;;;;;9.03;1.70;;;14.80;89.10;;;;;;5084634;28;20738;-80
2021/04/25 09:35:22;;;;;;;4.07;1.67;;;15.00;87.80;;;;;;5079462;28;20207;-79
2021/04/25 09:38:12;;;;;;;7.10;1.80;;;15.20;85.10;;;;;;5082132;28;20702;-80
2021/04/25 09:40:57;;;;;;;7.37;1.67;;;15.50;84.80;;;;;;5078384;28;20750;-81
2021/04/25 09:43:45;;;;;;;7.83;1.80;;;15.60;83.70;;;;;;5083398;28;20257;-80
2021/04/25 09:46:49;;;;;;;6.00;1.67;;;15.80;83.70;;;;;;5084816;28;20210;-80
2021/04/25 09:49:43;;;;;;;5.30;1.60;;;16.00;80.10;;;;;;5081449;28;20245;-80
2021/04/25 09:52:36;;;;;;;10.07;1.90;;;16.10;82.40;;;;;;5083744;28;20209;-79
2021/04/25 09:55:27;;;;;;;4.07;1.30;;;16.20;82.30;;;;;;5088551;28;20221;-79
2021/04/25 09:58:12;;;;;;;7.10;1.63;;;16.30;81.10;;;;;;5086354;28;20215;-74
2021/04/25 10:00:57;;;;;;;6.53;1.50;;;16.40;80.30;;;;;;5078546;28;20225;-78
2021/04/25 10:03:47;;;;;;;6.10;1.87;;;16.50;77.60;;;;;;5077879;28;20205;-80
2021/04/25 10:06:50;;;;;;;6.03;1.60;;;16.50;76.80;;;;;;5080299;28;20210;-80
2021/04/25 10:09:35;;;;;;;7.07;1.50;;;16.60;76.50;;;;;;5078848;28;20231;-81
2021/04/25 10:12:21;;;;;;;12.20;2.20;;;16.70;74.60;;;;;;5080354;28;20233;-79
2021/04/25 10:15:07;;;;;;;3.83;1.27;;;16.70;72.20;;;;;;5083748;28;20209;-78
2021/04/25 10:17:55;;;;;;;5.67;1.80;;;16.80;71.30;;;;;;5073738;28;20215;-76
2021/04/25 10:20:40;;;;;;;6.33;1.70;;;16.90;70.80;;;;;;5069402;28;20266;-76
2021/04/25 10:23:25;;;;;;;8.53;1.80;;;17.10;73.10;;;;;;5063514;28;20205;-75
2021/04/25 10:26:11;;;;;;;7.27;1.70;;;17.10;72.70;;;;;;5070316;28;20614;-76
2021/04/25 10:29:01;;;;;;;5.80;1.60;;;17.20;70.50;;;;;;5070081;28;20330;-77
2021/04/25 10:31:46;;;;;;;6.67;1.77;;;17.40;71.40;;;;;;5072355;28;20231;-77
2021/04/25 10:34:32;;;;;;;5.53;1.60;;;17.50;71.80;;;;;;5070837;28;20549;-75
2021/04/25 10:37:18;;;;;;;8.27;1.80;;;17.70;69.50;;;;;;5090502;28;20254;-78
2021/04/25 10:40:30;;;;;;;7.80;1.70;;;17.70;69.90;;;;;;5087541;28;20284;-79
2021/04/25 10:43:18;;;;;;;6.80;2.43;;;17.80;73.10;;;;;;5076540;28;20288;-74
2021/04/25 10:46:03;;;;;;;7.47;2.47;;;17.90;71.80;;;;;;5084010;28;20583;-78
2021/04/25 10:48:50;;;;;;;10.93;6.13;;;18.10;70.30;;;;;;5081108;28;20228;-77
2021/04/25 10:51:43;;;;;;;5.63;1.73;;;18.30;68.80;;;;;;5077474;28;20218;-77
2021/04/25 10:54:28;;;;;;;18.50;11.57;;;18.50;66.90;;;;;;5078855;28;20221;-75
2021/04/25 10:57:12;;;;;;;6.10;1.90;;;18.50;67.50;;;;;;5072294;28;20212;-78
2021/04/25 11:00:37;;;;;;;6.87;1.90;;;18.60;66.20;;;;;;5079946;28;20727;-78
2021/04/25 11:03:45;;;;;;;5.83;1.87;;;18.90;66.80;;;;;;5080499;28;20253;-80
2021/04/25 11:06:29;;;;;;;11.67;6.00;;;19.60;64.60;;;;;;5075029;28;20225;-81
2021/04/25 11:09:51;;;;;;;5.70;1.90;;;20.30;66.00;;;;;;5081617;28;20298;-80
2021/04/25 11:12:43;;;;;;;6.27;2.30;;;20.90;62.30;;;;;;5071420;28;20213;-77
2021/04/25 11:15:51;;;;;;;7.07;2.00;;;21.60;58.30;;;;;;5070006;28;20238;-78
2021/04/25 11:18:49;;;;;;;10.73;2.33;;;22.10;57.10;;;;;;5078864;28;20213;-78
2021/04/25 11:21:45;;;;;;;6.10;1.77;;;22.50;58.10;;;;;;5081186;28;20431;-77
2021/04/25 11:24:32;;;;;;;4.53;2.00;;;22.90;57.50;;;;;;5077849;28;20212;-74
2021/04/25 11:27:33;;;;;;;8.77;2.07;;;23.40;57.40;;;;;;5072951;28;20204;-77
2021/04/25 11:30:38;;;;;;;7.67;2.30;;;24.00;56.50;;;;;;5068069;28;20275;-73
2021/04/25 11:33:34;;;;;;;5.63;1.70;;;24.60;56.20;;;;;;5077197;28;20224;-78
2021/04/25 11:36:39;;;;;;;9.50;2.00;;;25.10;54.20;;;;;;5072898;28;20625;-82
2021/04/25 11:39:27;;;;;;;7.05;1.80;;;25.60;54.90;;;;;;5071380;28;20419;-76
2021/04/25 11:42:14;;;;;;;9.98;2.20;;;26.10;50.80;;;;;;5074189;28;20233;-78
2021/04/25 11:45:01;;;;;;;8.55;2.20;;;26.30;48.00;;;;;;5072408;28;20700;-78
2021/04/25 11:47:48;;;;;;;7.22;2.05;;;26.60;47.80;;;;;;5074055;28;20274;-78
2021/04/25 11:50:34;;;;;;;6.28;2.13;;;26.90;47.20;;;;;;5065329;28;20237;-78
2021/04/25 11:53:34;;;;;;;6.45;1.77;;;27.20;45.10;;;;;;5072876;28;20289;-76
2021/04/25 11:56:24;;;;;;;6.15;1.80;;;27.70;47.80;;;;;;5060548;28;20222;-75
2021/04/25 11:59:10;;;;;;;5.82;2.15;;;28.20;48.10;;;;;;5074531;28;20288;-80
2021/04/25 12:02:05;;;;;;;4.22;1.90;;;28.70;46.20;;;;;;5070110;28;20260;-76
2021/04/25 12:04:52;;;;;;;5.88;1.70;;;29.20;44.40;;;;;;5069985;28;20202;-79
2021/04/25 12:07:39;;;;;;;6.68;2.20;;;29.70;42.50;;;;;;5067973;28;20214;-79
2021/04/25 12:10:29;;;;;;;11.50;2.08;;;30.20;43.40;;;;;;5066807;28;20241;-79
2021/04/25 12:13:16;;;;;;;6.70;1.80;;;30.50;44.10;;;;;;5064868;28;20206;-79
2021/04/25 12:16:03;;;;;;;3.28;1.67;;;30.70;41.70;;;;;;5069010;28;20206;-78
2021/04/25 12:18:50;;;;;;;4.38;1.52;;;31.00;42.20;;;;;;5082058;28;20218;-76
2021/04/25 12:21:35;;;;;;;4.88;1.73;;;31.20;41.60;;;;;;5085988;28;20217;-79
2021/04/25 12:24:21;;;;;;;5.25;1.65;;;31.50;40.10;;;;;;5081831;28;20289;-78
2021/04/25 12:27:07;;;;;;;5.07;1.88;;;31.90;38.40;;;;;;5078422;28;20209;-79
2021/04/25 12:29:53;;;;;;;4.05;1.42;;;32.30;38.50;;;;;;5074572;28;20277;-78
2021/04/25 12:32:37;;;;;;;41.40;4.70;;;32.60;41.00;;;;;;5079030;28;20233;-77
2021/04/25 12:35:25;;;;;;;9.30;2.28;;;32.90;39.10;;;;;;5074937;28;20227;-78
2021/04/25 12:38:22;;;;;;;7.38;2.05;;;33.20;37.90;;;;;;5072642;28;20206;-79
2021/04/25 12:41:09;;;;;;;6.00;1.48;;;33.50;39.90;;;;;;5076957;28;20213;-77
2021/04/25 12:43:56;;;;;;;5.78;1.83;;;33.80;35.90;;;;;;5081141;28;20271;-78
2021/04/25 12:46:51;;;;;;;14.25;3.33;;;34.10;37.20;;;;;;5073695;28;20213;-76
2021/04/25 12:49:37;;;;;;;4.13;1.65;;;34.30;36.80;;;;;;5076059;28;20249;-78
2021/04/25 12:52:34;;;;;;;6.43;2.10;;;34.40;38.70;;;;;;5077513;28;20229;-78
2021/04/25 12:55:28;;;;;;;3.78;1.60;;;34.40;37.20;;;;;;5075569;28;20229;-78
2021/04/25 12:58:13;;;;;;;8.10;1.90;;;34.30;37.60;;;;;;5074473;28;20205;-77
2021/04/25 13:01:19;;;;;;;7.32;2.00;;;34.30;34.80;;;;;;5068411;28;20229;-77
2021/04/25 13:04:34;;;;;;;11.55;2.22;;;34.30;36.60;;;;;;5078210;28;20259;-76
2021/04/25 13:07:25;;;;;;;4.57;1.83;;;34.40;40.60;;;;;;5074051;28;20193;-79
2021/04/25 13:10:13;;;;;;;3.28;1.70;;;34.30;37.90;;;;;;5083826;28;20292;-79
2021/04/25 13:13:00;;;;;;;5.80;1.60;;;34.20;36.40;;;;;;5078948;28;20702;-78
2021/04/25 13:15:45;;;;;;;5.72;1.80;;;34.20;37.70;;;;;;5076504;28;20209;-78
2021/04/25 13:18:37;;;;;;;6.68;2.13;;;34.20;36.90;;;;;;5080864;28;20699;-78
2021/04/25 13:21:41;;;;;;;5.32;1.60;;;34.20;36.80;;;;;;5071944;28;20248;-78
2021/04/25 13:24:26;;;;;;;5.35;2.13;;;34.30;37.40;;;;;;5079979;28;20630;-78
2021/04/25 13:27:13;;;;;;;4.18;1.70;;;34.50;35.40;;;;;;5078840;28;20213;-78
2021/04/25 13:29:58;;;;;;;4.38;1.63;;;34.60;35.20;;;;;;5074988;28;20257;-76
2021/04/25 13:32:43;;;;;;;5.18;1.60;;;34.80;35.50;;;;;;5067565;28;20502;-77
2021/04/25 13:35:28;;;;;;;4.50;1.83;;;34.90;35.70;;;;;;5075195;28;20214;-77
2021/04/25 13:38:16;;;;;;;6.00;2.03;;;35.00;35.80;;;;;;5068633;28;20222;-77
2021/04/25 13:41:04;;;;;;;6.55;1.90;;;35.20;34.30;;;;;;5075587;28;20225;-77
2021/04/25 13:43:49;;;;;;;5.22;2.00;;;35.30;34.00;;;;;;5081683;28;20236;-78
2021/04/25 13:46:34;;;;;;;5.63;2.10;;;35.40;33.30;;;;;;5087037;28;20202;-78
2021/04/25 13:49:19;;;;;;;5.85;1.75;;;35.30;33.20;;;;;;5084695;28;20291;-78
2021/04/25 13:52:07;;;;;;;7.75;2.88;;;35.00;36.90;;;;;;5086675;28;20222;-77
2021/04/25 13:54:52;;;;;;;3.75;1.90;;;34.60;35.10;;;;;;5081243;28;20205;-78
2021/04/25 13:57:37;;;;;;;6.13;2.17;;;34.30;34.50;;;;;;5081287;28;20200;-79
2021/04/25 14:00:24;;;;;;;4.15;1.80;;;34.20;34.80;;;;;;5077507;28;20604;-77
2021/04/25 14:03:09;;;;;;;5.75;1.85;;;34.20;35.00;;;;;;5080088;28;20787;-77
2021/04/25 14:05:54;;;;;;;5.28;1.58;;;34.20;34.30;;;;;;5078590;28;20220;-78
2021/04/25 14:08:40;;;;;;;5.13;1.70;;;34.20;36.50;;;;;;5079612;28;20290;-78
2021/04/25 14:11:25;;;;;;;4.90;1.80;;;34.10;34.70;;;;;;5086352;28;20217;-78
2021/04/25 14:14:09;;;;;;;8.15;1.88;;;34.10;35.00;;;;;;5083158;28;20237;-79
2021/04/25 14:16:54;;;;;;;6.50;1.83;;;34.10;36.20;;;;;;5082467;28;20197;-78
2021/04/25 14:19:39;;;;;;;4.65;1.85;;;34.10;34.00;;;;;;5072507;28;20245;-79
2021/04/25 14:22:25;;;;;;;4.03;1.60;;;34.20;36.20;;;;;;5076497;28;20491;-78
2021/04/25 14:25:14;;;;;;;4.45;1.80;;;34.30;34.70;;;;;;5073554;28;20202;-78
2021/04/25 14:27:59;;;;;;;7.20;2.03;;;34.20;34.30;;;;;;5073961;28;20210;-77
2021/04/25 14:30:45;;;;;;;4.82;1.60;;;34.20;34.20;;;;;;5068152;28;20286;-77
2021/04/25 14:33:30;;;;;;;3.17;1.65;;;34.00;33.30;;;;;;5076934;28;20506;-77